createdAt,value
2018-12-31T00:00:03.145Z,23.1
2018-12-31T00:01:05.635Z,23.1
2018-12-31T00:02:08.073Z,23.1
2018-12-31T00:03:10.258Z,23.1
2018-12-31T00:04:12.426Z,23
2018-12-31T00:05:14.878Z,23
2018-12-31T00:06:17.325Z,23
2018-12-31T00:07:19.747Z,23
2018-12-31T00:08:22.175Z,23
2018-12-31T00:09:24.674Z,23.1
2018-12-31T00:10:27.099Z,23.1
2018-12-31T00:11:29.243Z,23.1
2018-12-31T00:12:31.671Z,23.1
2018-12-31T00:13:34.103Z,23.1
2018-12-31T00:14:36.245Z,23.1
2018-12-31T00:15:38.675Z,23.1
2018-12-31T00:16:41.094Z,23.1
2018-12-31T00:17:43.297Z,23.2
2018-12-31T00:18:45.711Z,23.2
2018-12-31T00:19:47.863Z,23.2
2018-12-31T00:20:50.336Z,23.2
2018-12-31T00:21:52.764Z,23.2
2018-12-31T00:22:54.913Z,23.1
2018-12-31T00:23:57.080Z,23.1
2018-12-31T00:24:59.567Z,23.1
2018-12-31T00:26:02.165Z,23.1
2018-12-31T00:27:04.337Z,23.1
2018-12-31T00:28:06.762Z,23.1
2018-12-31T00:29:08.978Z,23.1
2018-12-31T00:30:11.403Z,23.1
2018-12-31T00:31:13.836Z,23.2
2018-12-31T00:32:16.275Z,23.2
2018-12-31T00:33:18.713Z,23.2
2018-12-31T00:34:20.870Z,23.2
2018-12-31T00:35:23.308Z,23.2
2018-12-31T00:36:25.464Z,23.2
2018-12-31T00:37:27.900Z,23.2
2018-12-31T00:38:30.327Z,23.2
2018-12-31T00:39:32.750Z,23.3
2018-12-31T00:40:35.180Z,23.3
2018-12-31T00:41:37.605Z,23.3
2018-12-31T00:42:40.034Z,23.3
2018-12-31T00:43:42.486Z,23.3
2018-12-31T00:44:44.911Z,23.3
2018-12-31T00:45:47.312Z,23.4
2018-12-31T00:46:49.214Z,23.4
2018-12-31T00:47:51.444Z,23.4
2018-12-31T00:48:53.598Z,23.4
2018-12-31T00:49:56.039Z,23.5
2018-12-31T00:50:58.209Z,23.5
2018-12-31T00:52:00.633Z,23.5
2018-12-31T00:53:03.058Z,23.5
2018-12-31T00:54:05.475Z,23.5
2018-12-31T00:55:07.904Z,23.5
2018-12-31T00:56:10.402Z,23.5
2018-12-31T00:57:12.885Z,23.5
2018-12-31T00:58:15.291Z,23.5
2018-12-31T00:59:17.716Z,23.5
2018-12-31T01:00:19.859Z,23.5
2018-12-31T01:01:22.284Z,23.5
2018-12-31T01:02:26.274Z,23.5
2018-12-31T01:03:28.434Z,23.5
2018-12-31T01:04:30.860Z,23.6
2018-12-31T01:05:33.300Z,23.5
2018-12-31T01:06:35.733Z,23.5
2018-12-31T01:07:38.270Z,23.6
2018-12-31T01:08:40.737Z,23.6
2018-12-31T01:09:42.908Z,23.6
2018-12-31T01:10:44.794Z,23.6
2018-12-31T01:11:47.230Z,23.6
2018-12-31T01:12:49.391Z,23.6
2018-12-31T01:13:51.552Z,23.6
2018-12-31T01:14:53.713Z,23.6
2018-12-31T01:15:55.876Z,23.6
2018-12-31T01:16:58.313Z,23.6
2018-12-31T01:18:00.752Z,23.6
2018-12-31T01:19:03.193Z,23.6
2018-12-31T01:20:05.634Z,23.6
2018-12-31T01:21:08.065Z,23.6
2018-12-31T01:22:09.658Z,23.6
2018-12-31T01:23:12.112Z,23.6
2018-12-31T01:24:14.555Z,23.6
2018-12-31T01:25:16.706Z,23.6
2018-12-31T01:26:19.144Z,23.6
2018-12-31T01:27:21.311Z,23.6
2018-12-31T01:28:23.740Z,23.6
2018-12-31T01:29:25.885Z,23.6
2018-12-31T01:30:28.062Z,23.6
2018-12-31T01:31:30.254Z,23.6
2018-12-31T01:32:32.413Z,23.6
2018-12-31T01:33:34.595Z,23.6
2018-12-31T01:34:37.020Z,23.6
2018-12-31T01:35:39.454Z,23.6
2018-12-31T01:36:41.625Z,23.6
2018-12-31T01:37:44.079Z,23.6
2018-12-31T01:38:46.234Z,23.6
2018-12-31T01:39:48.745Z,23.6
2018-12-31T01:40:50.616Z,23.6
2018-12-31T01:41:52.492Z,23.6
2018-12-31T01:42:54.944Z,23.6
2018-12-31T01:43:57.089Z,23.6
2018-12-31T01:44:59.263Z,23.6
2018-12-31T01:46:00.883Z,23.6
2018-12-31T01:47:03.046Z,23.6
2018-12-31T01:48:05.465Z,23.6
2018-12-31T01:49:07.341Z,23.6
2018-12-31T01:50:09.487Z,23.7
2018-12-31T01:51:12.503Z,23.7
2018-12-31T01:52:14.662Z,23.7
2018-12-31T01:53:16.534Z,23.7
2018-12-31T01:54:18.410Z,23.7
2018-12-31T01:55:20.844Z,23.7
2018-12-31T01:56:23.270Z,23.7
2018-12-31T01:57:25.685Z,23.7
2018-12-31T01:58:27.871Z,23.7
2018-12-31T01:59:29.957Z,23.7
2018-12-31T02:00:32.776Z,23.7
2018-12-31T02:01:35.205Z,23.7
2018-12-31T02:02:37.627Z,23.7
2018-12-31T02:03:40.052Z,23.7
2018-12-31T02:04:42.479Z,23.7
2018-12-31T02:05:44.911Z,23.7
2018-12-31T02:06:47.121Z,23.7
2018-12-31T02:07:49.249Z,23.7
2018-12-31T02:08:51.427Z,23.7
2018-12-31T02:09:53.857Z,23.7
2018-12-31T02:10:56.009Z,23.7
2018-12-31T02:11:58.442Z,23.7
2018-12-31T02:13:00.601Z,23.7
2018-12-31T02:14:03.042Z,23.7
2018-12-31T02:15:05.483Z,23.7
2018-12-31T02:16:07.633Z,23.7
2018-12-31T02:17:10.059Z,23.7
2018-12-31T02:18:12.500Z,23.7
2018-12-31T02:19:14.367Z,23.7
2018-12-31T02:20:16.814Z,23.7
2018-12-31T02:21:19.240Z,23.7
2018-12-31T02:22:21.671Z,23.7
2018-12-31T02:23:24.107Z,23.7
2018-12-31T02:24:26.264Z,23.7
2018-12-31T02:25:28.692Z,23.7
2018-12-31T02:26:30.848Z,23.7
2018-12-31T02:27:33.071Z,23.7
2018-12-31T02:28:35.205Z,23.7
2018-12-31T02:29:37.067Z,23.7
2018-12-31T02:30:39.236Z,23.7
2018-12-31T02:31:41.656Z,23.7
2018-12-31T02:32:43.822Z,23.7
2018-12-31T02:33:45.978Z,23.7
2018-12-31T02:34:48.121Z,23.7
2018-12-31T02:35:50.307Z,23.7
2018-12-31T02:36:51.930Z,23.7
2018-12-31T02:37:54.369Z,23.7
2018-12-31T02:38:56.808Z,23.7
2018-12-31T02:39:58.995Z,23.7
2018-12-31T02:41:01.420Z,23.7
2018-12-31T02:42:03.885Z,23.7
2018-12-31T02:43:06.332Z,23.7
2018-12-31T02:44:08.508Z,23.7
2018-12-31T02:45:10.665Z,23.7
2018-12-31T02:46:13.115Z,23.7
2018-12-31T02:47:16.201Z,23.7
2018-12-31T02:48:18.624Z,23.7
2018-12-31T02:49:21.040Z,23.7
2018-12-31T02:50:23.213Z,23.7
2018-12-31T02:51:25.650Z,23.7
2018-12-31T02:52:28.069Z,23.7
2018-12-31T02:53:30.229Z,23.7
2018-12-31T02:54:32.652Z,23.7
2018-12-31T02:55:34.590Z,23.7
2018-12-31T02:56:36.721Z,23.7
2018-12-31T02:57:38.888Z,23.7
2018-12-31T02:58:41.322Z,23.8
2018-12-31T02:59:43.487Z,23.8
2018-12-31T03:00:45.717Z,23.8
2018-12-31T03:01:48.145Z,23.8
2018-12-31T03:02:50.319Z,23.8
2018-12-31T03:03:52.753Z,23.8
2018-12-31T03:04:55.185Z,23.8
2018-12-31T03:05:57.612Z,23.8
2018-12-31T03:07:00.060Z,23.7
2018-12-31T03:08:02.484Z,23.8
2018-12-31T03:09:04.905Z,23.8
2018-12-31T03:10:06.772Z,23.8
2018-12-31T03:11:09.192Z,23.8
2018-12-31T03:12:11.625Z,23.8
2018-12-31T03:13:14.065Z,23.8
2018-12-31T03:14:16.482Z,23.8
2018-12-31T03:15:18.925Z,23.8
2018-12-31T03:16:21.072Z,23.8
2018-12-31T03:17:23.236Z,23.8
2018-12-31T03:18:25.663Z,23.7
2018-12-31T03:19:28.103Z,23.7
2018-12-31T03:20:30.544Z,23.7
2018-12-31T03:21:32.715Z,23.7
2018-12-31T03:22:34.608Z,23.7
2018-12-31T03:23:36.205Z,23.7
2018-12-31T03:24:38.626Z,23.7
2018-12-31T03:25:41.070Z,23.7
2018-12-31T03:26:43.235Z,23.8
2018-12-31T03:27:45.670Z,23.7
2018-12-31T03:28:47.834Z,23.8
2018-12-31T03:29:50.290Z,23.8
2018-12-31T03:30:52.455Z,23.8
2018-12-31T03:31:54.910Z,23.8
2018-12-31T03:32:57.372Z,23.8
2018-12-31T03:33:59.568Z,23.8
2018-12-31T03:35:01.996Z,23.8
2018-12-31T03:36:04.424Z,23.8
2018-12-31T03:37:06.573Z,23.8
2018-12-31T03:38:09.003Z,23.8
2018-12-31T03:39:11.446Z,23.8
2018-12-31T03:40:13.616Z,23.8
2018-12-31T03:41:16.040Z,23.8
2018-12-31T03:42:18.472Z,23.8
2018-12-31T03:43:20.605Z,23.8
2018-12-31T03:44:23.025Z,23.8
2018-12-31T03:45:25.442Z,23.8
2018-12-31T03:46:27.608Z,23.8
2018-12-31T03:47:29.776Z,23.8
2018-12-31T03:48:31.935Z,23.8
2018-12-31T03:49:34.094Z,23.8
2018-12-31T03:50:36.513Z,23.8
2018-12-31T03:51:38.682Z,23.8
2018-12-31T03:52:41.113Z,23.8
2018-12-31T03:53:43.271Z,23.8
2018-12-31T03:54:45.713Z,23.8
2018-12-31T03:55:48.141Z,23.8
2018-12-31T03:56:51.465Z,23.8
2018-12-31T03:57:53.631Z,23.8
2018-12-31T03:58:55.863Z,23.8
2018-12-31T03:59:58.014Z,23.8
2018-12-31T04:01:00.161Z,23.8
2018-12-31T04:02:02.594Z,23.8
2018-12-31T04:03:05.015Z,23.8
2018-12-31T04:04:07.453Z,23.8
2018-12-31T04:05:09.867Z,23.8
2018-12-31T04:06:12.286Z,23.8
2018-12-31T04:07:14.721Z,23.8
2018-12-31T04:08:17.154Z,23.8
2018-12-31T04:09:19.321Z,23.7
2018-12-31T04:10:21.742Z,23.7
2018-12-31T04:11:24.154Z,23.7
2018-12-31T04:12:26.586Z,23.7
2018-12-31T04:13:29.010Z,23.7
2018-12-31T04:14:31.459Z,23.7
2018-12-31T04:15:33.897Z,23.7
2018-12-31T04:16:36.315Z,23.7
2018-12-31T04:17:38.217Z,23.7
2018-12-31T04:18:40.631Z,23.7
2018-12-31T04:19:42.791Z,23.7
2018-12-31T04:20:45.220Z,23.7
2018-12-31T04:21:47.654Z,23.7
2018-12-31T04:22:49.819Z,23.7
2018-12-31T04:23:52.246Z,23.7
2018-12-31T04:24:54.429Z,23.7
2018-12-31T04:25:56.871Z,23.7
2018-12-31T04:26:59.036Z,23.7
2018-12-31T04:28:01.192Z,23.7
2018-12-31T04:29:03.345Z,23.7
2018-12-31T04:30:05.783Z,23.7
2018-12-31T04:31:08.205Z,23.7
2018-12-31T04:32:10.348Z,23.7
2018-12-31T04:33:12.776Z,23.7
2018-12-31T04:34:15.199Z,23.7
2018-12-31T04:35:17.376Z,23.7
2018-12-31T04:36:19.799Z,23.7
2018-12-31T04:37:22.233Z,23.7
2018-12-31T04:38:24.378Z,23.7
2018-12-31T04:39:26.805Z,23.7
2018-12-31T04:40:29.233Z,23.7
2018-12-31T04:41:31.389Z,23.7
2018-12-31T04:42:33.548Z,23.7
2018-12-31T04:43:35.708Z,23.7
2018-12-31T04:44:37.585Z,23.7
2018-12-31T04:45:40.009Z,23.7
2018-12-31T04:46:42.155Z,23.6
2018-12-31T04:47:44.573Z,23.7
2018-12-31T04:48:46.722Z,23.7
2018-12-31T04:49:49.158Z,23.6
2018-12-31T04:50:51.292Z,23.6
2018-12-31T04:51:53.457Z,23.6
2018-12-31T04:52:57.615Z,23.6
2018-12-31T04:54:00.099Z,23.6
2018-12-31T04:55:02.325Z,23.6
2018-12-31T04:56:04.469Z,23.6
2018-12-31T04:57:06.319Z,23.6
2018-12-31T04:58:08.746Z,23.6
2018-12-31T04:59:11.368Z,23.6
2018-12-31T05:00:13.793Z,23.6
2018-12-31T05:01:15.922Z,23.6
2018-12-31T05:02:18.352Z,23.6
2018-12-31T05:03:20.779Z,23.6
2018-12-31T05:04:23.136Z,23.6
2018-12-31T05:05:25.299Z,23.6
2018-12-31T05:06:27.723Z,23.6
2018-12-31T05:07:29.611Z,23.6
2018-12-31T05:08:31.771Z,23.6
2018-12-31T05:09:33.943Z,23.6
2018-12-31T05:10:35.847Z,23.6
2018-12-31T05:11:38.273Z,23.6
2018-12-31T05:12:40.701Z,23.6
2018-12-31T05:13:43.164Z,23.6
2018-12-31T05:14:45.056Z,23.6
2018-12-31T05:15:47.493Z,23.6
2018-12-31T05:16:49.935Z,23.6
2018-12-31T05:17:52.093Z,23.6
2018-12-31T05:18:54.522Z,23.6
2018-12-31T05:19:56.954Z,23.6
2018-12-31T05:20:59.373Z,23.6
2018-12-31T05:22:01.810Z,23.6
2018-12-31T05:23:06.239Z,23.6
2018-12-31T05:24:08.662Z,23.6
2018-12-31T05:25:10.537Z,23.6
2018-12-31T05:26:12.417Z,23.6
2018-12-31T05:27:14.841Z,23.6
2018-12-31T05:28:17.273Z,23.6
2018-12-31T05:29:19.410Z,23.6
2018-12-31T05:30:21.836Z,23.6
2018-12-31T05:31:24.259Z,23.6
2018-12-31T05:32:26.391Z,23.6
2018-12-31T05:33:28.818Z,23.6
2018-12-31T05:34:30.971Z,23.6
2018-12-31T05:35:33.403Z,23.6
2018-12-31T05:36:35.551Z,23.6
2018-12-31T05:37:37.983Z,23.6
2018-12-31T05:38:40.417Z,23.6
2018-12-31T05:39:42.565Z,23.6
2018-12-31T05:40:44.155Z,23.6
2018-12-31T05:41:46.614Z,23.6
2018-12-31T05:42:48.491Z,23.6
2018-12-31T05:43:50.623Z,23.6
2018-12-31T05:44:52.772Z,23.6
2018-12-31T05:45:55.193Z,23.6
2018-12-31T05:46:57.615Z,23.6
2018-12-31T05:48:00.044Z,23.6
2018-12-31T05:49:02.474Z,23.6
2018-12-31T05:50:04.351Z,23.6
2018-12-31T05:51:06.770Z,23.6
2018-12-31T05:52:08.931Z,23.6
2018-12-31T05:53:11.353Z,23.6
2018-12-31T05:54:13.514Z,23.6
2018-12-31T05:55:15.681Z,23.6
2018-12-31T05:56:18.102Z,23.6
2018-12-31T05:57:20.548Z,23.6
2018-12-31T05:58:22.435Z,23.6
2018-12-31T05:59:24.581Z,23.6
2018-12-31T06:00:26.751Z,23.6
2018-12-31T06:01:29.179Z,23.6
2018-12-31T06:02:31.603Z,23.6
2018-12-31T06:03:34.020Z,23.6
2018-12-31T06:04:36.438Z,23.6
2018-12-31T06:05:38.596Z,23.6
2018-12-31T06:06:40.760Z,23.6
2018-12-31T06:07:42.904Z,23.6
2018-12-31T06:08:45.323Z,23.6
2018-12-31T06:09:47.752Z,23.6
2018-12-31T06:10:50.201Z,23.6
2018-12-31T06:11:52.328Z,23.6
2018-12-31T06:12:54.755Z,23.6
2018-12-31T06:13:57.173Z,23.6
2018-12-31T06:14:59.594Z,23.5
2018-12-31T06:16:02.170Z,23.5
2018-12-31T06:17:06.239Z,23.5
2018-12-31T06:18:08.656Z,23.5
2018-12-31T06:19:11.074Z,23.5
2018-12-31T06:20:13.510Z,23.5
2018-12-31T06:21:15.676Z,23.5
2018-12-31T06:22:18.114Z,23.5
2018-12-31T06:23:20.580Z,23.5
2018-12-31T06:24:23.022Z,23.5
2018-12-31T06:25:25.496Z,23.5
2018-12-31T06:26:27.622Z,23.5
2018-12-31T06:27:29.780Z,23.5
2018-12-31T06:28:31.664Z,23.5
2018-12-31T06:29:34.098Z,23.5
2018-12-31T06:30:36.282Z,23.5
2018-12-31T06:31:38.714Z,23.5
2018-12-31T06:32:41.144Z,23.5
2018-12-31T06:33:43.561Z,23.5
2018-12-31T06:34:45.985Z,23.5
2018-12-31T06:35:48.134Z,23.5
2018-12-31T06:36:50.306Z,23.5
2018-12-31T06:37:52.454Z,23.5
2018-12-31T06:38:54.333Z,23.5
2018-12-31T06:39:56.207Z,23.5
2018-12-31T06:40:58.634Z,23.5
2018-12-31T06:42:01.064Z,23.5
2018-12-31T06:43:03.515Z,23.5
2018-12-31T06:44:05.660Z,23.5
2018-12-31T06:45:07.540Z,23.5
2018-12-31T06:46:09.962Z,23.5
2018-12-31T06:47:12.384Z,23.5
2018-12-31T06:48:14.822Z,23.5
2018-12-31T06:49:17.248Z,23.5
2018-12-31T06:50:19.666Z,23.5
2018-12-31T06:51:22.086Z,23.5
2018-12-31T06:52:24.510Z,23.5
2018-12-31T06:53:26.719Z,23.5
2018-12-31T06:54:28.870Z,23.5
2018-12-31T06:55:31.466Z,23.5
2018-12-31T06:56:33.945Z,23.5
2018-12-31T06:57:36.418Z,23.5
2018-12-31T06:58:38.877Z,23.5
2018-12-31T06:59:41.054Z,23.5
2018-12-31T07:00:43.490Z,23.5
2018-12-31T07:01:45.624Z,23.5
2018-12-31T07:02:47.518Z,23.5
2018-12-31T07:04:05.294Z,23.5
2018-12-31T07:05:07.205Z,23.5
2018-12-31T07:06:09.330Z,23.5
2018-12-31T07:07:11.755Z,23.5
2018-12-31T07:08:14.194Z,23.5
2018-12-31T07:09:16.621Z,23.5
2018-12-31T07:10:19.062Z,23.5
2018-12-31T07:11:21.476Z,23.5
2018-12-31T07:12:23.894Z,23.5
2018-12-31T07:13:26.323Z,23.5
2018-12-31T07:14:28.747Z,23.5
2018-12-31T07:15:30.684Z,23.5
2018-12-31T07:16:33.109Z,23.5
2018-12-31T07:17:35.542Z,23.5
2018-12-31T07:18:37.984Z,23.5
2018-12-31T07:19:41.194Z,23.5
2018-12-31T07:20:43.336Z,23.4
2018-12-31T07:21:45.522Z,23.4
2018-12-31T07:22:47.654Z,23.4
2018-12-31T07:23:49.814Z,23.4
2018-12-31T07:24:52.252Z,23.4
2018-12-31T07:25:54.685Z,23.4
2018-12-31T07:26:57.114Z,23.4
2018-12-31T07:27:59.274Z,23.4
2018-12-31T07:29:01.710Z,23.4
2018-12-31T07:30:03.862Z,23.4
2018-12-31T07:31:06.342Z,23.4
2018-12-31T07:32:08.787Z,23.4
2018-12-31T07:33:11.211Z,23.4
2018-12-31T07:34:13.645Z,23.4
2018-12-31T07:35:15.820Z,23.4
2018-12-31T07:36:18.244Z,23.4
2018-12-31T07:37:20.128Z,23.4
2018-12-31T07:38:22.314Z,23.4
2018-12-31T07:39:24.741Z,23.4
2018-12-31T07:40:26.623Z,23.4
2018-12-31T07:41:28.782Z,23.4
2018-12-31T07:42:30.931Z,23.4
2018-12-31T07:43:32.792Z,23.4
2018-12-31T07:44:34.956Z,23.4
2018-12-31T07:45:37.382Z,23.4
2018-12-31T07:46:39.600Z,23.4
2018-12-31T07:47:42.016Z,23.4
2018-12-31T07:48:44.454Z,23.4
2018-12-31T07:49:46.611Z,23.4
2018-12-31T07:50:48.736Z,23.4
2018-12-31T07:51:51.161Z,23.4
2018-12-31T07:52:53.602Z,23.4
2018-12-31T07:53:56.033Z,23.4
2018-12-31T07:54:58.458Z,23.4
2018-12-31T07:56:00.885Z,23.4
2018-12-31T07:57:03.023Z,23.4
2018-12-31T07:58:05.188Z,23.4
2018-12-31T07:59:07.362Z,23.4
2018-12-31T08:00:09.529Z,23.4
2018-12-31T08:01:11.960Z,23.4
2018-12-31T08:02:14.393Z,23.4
2018-12-31T08:03:16.827Z,23.4
2018-12-31T08:04:19.260Z,23.4
2018-12-31T08:05:21.145Z,23.4
2018-12-31T08:06:23.342Z,23.4
2018-12-31T08:07:25.764Z,23.4
2018-12-31T08:08:27.923Z,23.4
2018-12-31T08:09:30.352Z,23.4
2018-12-31T08:10:32.781Z,23.4
2018-12-31T08:11:35.255Z,23.4
2018-12-31T08:12:37.676Z,23.4
2018-12-31T08:13:39.836Z,23.4
2018-12-31T08:14:41.994Z,23.4
2018-12-31T08:15:44.430Z,23.4
2018-12-31T08:16:46.852Z,23.4
2018-12-31T08:17:49.273Z,23.4
2018-12-31T08:18:51.694Z,23.4
2018-12-31T08:19:54.132Z,23.4
2018-12-31T08:20:56.541Z,23.4
2018-12-31T08:21:58.997Z,23.4
2018-12-31T08:23:01.156Z,23.4
2018-12-31T08:24:03.589Z,23.4
2018-12-31T08:25:05.451Z,23.4
2018-12-31T08:26:07.901Z,23.4
2018-12-31T08:27:10.132Z,23.4
2018-12-31T08:28:12.349Z,23.4
2018-12-31T08:29:14.535Z,23.4
2018-12-31T08:30:16.685Z,23.4
2018-12-31T08:31:20.884Z,23.4
2018-12-31T08:32:23.318Z,23.4
2018-12-31T08:33:25.750Z,23.4
2018-12-31T08:34:27.911Z,23.4
2018-12-31T08:35:30.343Z,23.5
2018-12-31T08:36:32.504Z,23.5
2018-12-31T08:37:34.949Z,23.5
2018-12-31T08:38:36.827Z,23.5
2018-12-31T08:39:39.255Z,23.5
2018-12-31T08:40:41.402Z,23.5
2018-12-31T08:41:43.832Z,23.5
2018-12-31T08:42:45.995Z,23.5
2018-12-31T08:43:48.148Z,23.6
2018-12-31T08:44:50.574Z,23.6
2018-12-31T08:45:52.719Z,23.6
2018-12-31T08:46:55.153Z,23.6
2018-12-31T08:47:57.592Z,23.7
2018-12-31T08:48:59.736Z,23.7
2018-12-31T08:50:04.068Z,23.7
2018-12-31T08:51:06.234Z,23.7
2018-12-31T08:52:08.668Z,23.7
2018-12-31T08:53:11.168Z,23.7
2018-12-31T08:54:13.572Z,23.8
2018-12-31T08:55:15.734Z,23.8
2018-12-31T08:56:18.164Z,23.8
2018-12-31T08:57:20.590Z,23.8
2018-12-31T08:58:23.023Z,23.8
2018-12-31T08:59:25.182Z,23.8
2018-12-31T09:00:27.343Z,23.8
2018-12-31T09:01:29.782Z,23.8
2018-12-31T09:02:31.935Z,23.9
2018-12-31T09:03:34.104Z,23.9
2018-12-31T09:04:36.280Z,23.9
2018-12-31T09:05:38.719Z,23.9
2018-12-31T09:06:41.155Z,23.9
2018-12-31T09:07:43.316Z,23.9
2018-12-31T09:08:45.741Z,23.9
2018-12-31T09:09:48.180Z,23.9
2018-12-31T09:10:50.050Z,23.9
2018-12-31T09:11:52.479Z,23.9
2018-12-31T09:12:54.375Z,23.9
2018-12-31T09:13:56.803Z,24
2018-12-31T09:14:59.232Z,24
2018-12-31T09:16:01.711Z,24
2018-12-31T09:17:04.139Z,24
2018-12-31T09:18:06.569Z,24
2018-12-31T09:19:09.006Z,24
2018-12-31T09:20:11.441Z,24
2018-12-31T09:21:13.887Z,24
2018-12-31T09:22:16.046Z,24
2018-12-31T09:23:18.210Z,24
2018-12-31T09:24:20.359Z,23.9
2018-12-31T09:25:22.834Z,23.9
2018-12-31T09:26:25.016Z,24
2018-12-31T09:27:27.457Z,24
2018-12-31T09:28:29.623Z,23.9
2018-12-31T09:29:31.788Z,23.9
2018-12-31T09:30:33.955Z,23.9
2018-12-31T09:31:36.382Z,23.9
2018-12-31T09:32:38.526Z,23.9
2018-12-31T09:33:40.691Z,23.9
2018-12-31T09:34:43.114Z,23.8
2018-12-31T09:35:45.553Z,23.8
2018-12-31T09:36:47.971Z,23.8
2018-12-31T09:37:50.405Z,23.8
2018-12-31T09:38:52.843Z,23.8
2018-12-31T09:39:54.702Z,23.8
2018-12-31T09:40:56.914Z,23.8
2018-12-31T09:41:58.514Z,23.7
2018-12-31T09:43:00.955Z,23.7
2018-12-31T09:44:03.370Z,23.7
2018-12-31T09:45:05.274Z,23.8
2018-12-31T09:46:07.718Z,23.8
2018-12-31T09:47:09.894Z,23.8
2018-12-31T09:48:12.326Z,23.8
2018-12-31T09:49:14.754Z,23.8
2018-12-31T09:50:17.193Z,23.8
2018-12-31T09:51:19.653Z,23.8
2018-12-31T09:52:22.096Z,23.8
2018-12-31T09:53:24.555Z,23.8
2018-12-31T09:54:26.993Z,23.8
2018-12-31T09:55:29.417Z,23.7
2018-12-31T09:56:31.847Z,23.7
2018-12-31T09:57:33.715Z,23.7
2018-12-31T09:58:37.412Z,23.7
2018-12-31T09:59:39.561Z,23.7
2018-12-31T10:00:41.435Z,23.7
2018-12-31T10:01:43.867Z,23.7
2018-12-31T10:02:45.780Z,23.7
2018-12-31T10:03:48.662Z,23.7
2018-12-31T10:04:50.835Z,23.7
2018-12-31T10:05:52.689Z,23.7
2018-12-31T10:06:55.123Z,23.7
2018-12-31T10:07:57.292Z,23.7
2018-12-31T10:08:59.450Z,23.8
2018-12-31T10:10:01.699Z,23.8
2018-12-31T10:11:04.126Z,23.8
2018-12-31T10:12:06.554Z,23.8
2018-12-31T10:13:08.995Z,23.8
2018-12-31T10:14:11.519Z,23.8
2018-12-31T10:15:13.961Z,23.8
2018-12-31T10:16:16.122Z,23.8
2018-12-31T10:17:18.285Z,23.8
2018-12-31T10:18:20.453Z,23.8
2018-12-31T10:19:22.593Z,23.8
2018-12-31T10:20:25.054Z,23.9
2018-12-31T10:21:27.494Z,23.9
2018-12-31T10:22:29.671Z,23.9
2018-12-31T10:23:32.121Z,23.9
2018-12-31T10:24:34.266Z,23.9
2018-12-31T10:25:36.429Z,23.9
2018-12-31T10:26:38.859Z,24
2018-12-31T10:27:41.850Z,24
2018-12-31T10:28:44.028Z,24
2018-12-31T10:29:45.917Z,24
2018-12-31T10:30:48.079Z,24
2018-12-31T10:31:50.503Z,24
2018-12-31T10:32:54.052Z,24
2018-12-31T10:33:56.482Z,24
2018-12-31T10:34:58.638Z,24
2018-12-31T10:36:00.794Z,24
2018-12-31T10:37:03.257Z,24
2018-12-31T10:38:05.413Z,24
2018-12-31T10:39:07.839Z,24
2018-12-31T10:40:09.980Z,24
2018-12-31T10:41:12.432Z,24
2018-12-31T10:42:14.616Z,24
2018-12-31T10:43:17.043Z,24
2018-12-31T10:44:18.915Z,24
2018-12-31T10:45:21.050Z,24
2018-12-31T10:46:23.193Z,24
2018-12-31T10:47:25.359Z,24
2018-12-31T10:48:27.792Z,24
2018-12-31T10:49:30.214Z,24
2018-12-31T10:50:31.795Z,24
2018-12-31T10:51:33.938Z,24
2018-12-31T10:52:36.091Z,24
2018-12-31T10:53:38.532Z,24
2018-12-31T10:54:40.967Z,24
2018-12-31T10:55:43.119Z,24
2018-12-31T10:56:45.272Z,24
2018-12-31T10:57:47.133Z,24
2018-12-31T10:58:49.311Z,24
2018-12-31T10:59:51.746Z,24
2018-12-31T11:00:54.187Z,24
2018-12-31T11:01:55.808Z,24
2018-12-31T11:02:57.967Z,24
2018-12-31T11:04:00.391Z,24
2018-12-31T11:05:02.550Z,24.1
2018-12-31T11:06:04.704Z,24.1
2018-12-31T11:07:06.569Z,24.1
2018-12-31T11:08:10.470Z,24.1
2018-12-31T11:09:12.744Z,24.1
2018-12-31T11:10:14.905Z,24.1
2018-12-31T11:11:17.334Z,24.1
2018-12-31T11:12:19.493Z,24.1
2018-12-31T11:13:21.652Z,24.1
2018-12-31T11:14:23.795Z,24.1
2018-12-31T11:15:25.956Z,24.1
2018-12-31T11:16:28.388Z,24.1
2018-12-31T11:17:30.811Z,24
2018-12-31T11:18:32.456Z,24
2018-12-31T11:19:34.077Z,24
2018-12-31T11:20:36.508Z,24
2018-12-31T11:21:38.931Z,24
2018-12-31T11:22:41.366Z,24
2018-12-31T11:23:43.527Z,24
2018-12-31T11:24:45.429Z,24
2018-12-31T11:25:47.590Z,24
2018-12-31T11:26:50.020Z,24
2018-12-31T11:27:51.913Z,24
2018-12-31T11:28:54.080Z,24
2018-12-31T11:29:56.257Z,24
2018-12-31T11:30:58.699Z,24
2018-12-31T11:32:01.140Z,24
2018-12-31T11:33:03.295Z,24
2018-12-31T11:34:05.465Z,24
2018-12-31T11:35:07.895Z,24
2018-12-31T11:36:10.337Z,24
2018-12-31T11:37:12.766Z,23.9
2018-12-31T11:38:14.932Z,24
2018-12-31T11:39:17.090Z,24
2018-12-31T11:40:18.983Z,24
2018-12-31T11:41:20.849Z,24
2018-12-31T11:42:22.979Z,24
2018-12-31T11:43:25.422Z,24
2018-12-31T11:44:27.291Z,24
2018-12-31T11:45:29.461Z,24
2018-12-31T11:46:31.883Z,24
2018-12-31T11:47:34.031Z,24
2018-12-31T11:48:36.193Z,24
2018-12-31T11:49:38.662Z,24
2018-12-31T11:50:41.137Z,24
2018-12-31T11:51:43.575Z,24
2018-12-31T11:52:45.743Z,24
2018-12-31T11:53:47.603Z,24
2018-12-31T11:54:50.037Z,24
2018-12-31T11:55:52.203Z,24
2018-12-31T11:56:54.640Z,24
2018-12-31T11:57:57.064Z,23.9
2018-12-31T11:58:59.496Z,23.9
2018-12-31T12:00:01.657Z,23.9
2018-12-31T12:01:04.085Z,23.9
2018-12-31T12:02:06.521Z,23.9
2018-12-31T12:03:08.684Z,23.9
2018-12-31T12:04:10.843Z,23.9
2018-12-31T12:05:13.315Z,23.9
2018-12-31T12:06:15.775Z,23.9
2018-12-31T12:07:17.944Z,23.9
2018-12-31T12:08:20.384Z,23.9
2018-12-31T12:09:22.266Z,23.9
2018-12-31T12:10:24.431Z,23.9
2018-12-31T12:11:26.280Z,23.9
2018-12-31T12:12:28.715Z,23.9
2018-12-31T12:13:31.145Z,23.9
2018-12-31T12:14:33.380Z,23.9
2018-12-31T12:15:35.577Z,23.9
2018-12-31T12:16:38.611Z,23.9
2018-12-31T12:17:41.544Z,23.9
2018-12-31T12:18:43.724Z,23.9
2018-12-31T12:19:45.962Z,23.9
2018-12-31T12:20:48.387Z,23.9
2018-12-31T12:21:50.553Z,23.9
2018-12-31T12:22:52.727Z,23.8
2018-12-31T12:23:54.913Z,23.8
2018-12-31T12:24:57.066Z,23.8
2018-12-31T12:25:59.494Z,23.8
2018-12-31T12:27:01.651Z,23.8
2018-12-31T12:28:05.795Z,23.8
2018-12-31T12:29:07.969Z,23.8
2018-12-31T12:30:10.903Z,23.8
2018-12-31T12:31:13.977Z,23.8
2018-12-31T12:32:15.580Z,23.8
2018-12-31T12:33:17.760Z,23.8
2018-12-31T12:34:20.194Z,23.8
2018-12-31T12:35:22.346Z,23.8
2018-12-31T12:36:24.497Z,23.8
2018-12-31T12:37:26.392Z,23.8
2018-12-31T12:38:28.554Z,23.8
2018-12-31T12:39:30.697Z,23.8
2018-12-31T12:40:33.149Z,23.7
2018-12-31T12:41:35.299Z,23.7
2018-12-31T12:42:38.162Z,23.7
2018-12-31T12:43:40.860Z,23.7
2018-12-31T12:44:42.992Z,23.7
2018-12-31T12:45:45.144Z,23.7
2018-12-31T12:46:47.318Z,23.7
2018-12-31T12:47:49.765Z,23.7
2018-12-31T12:48:52.205Z,23.7
2018-12-31T12:49:54.636Z,23.7
2018-12-31T12:50:57.077Z,23.7
2018-12-31T12:51:59.516Z,23.7
2018-12-31T12:53:01.950Z,23.7
2018-12-31T12:54:04.377Z,23.7
2018-12-31T12:55:06.816Z,23.7
2018-12-31T12:56:09.655Z,23.7
2018-12-31T12:57:12.719Z,23.7
2018-12-31T12:58:15.608Z,23.7
2018-12-31T12:59:18.041Z,23.7
2018-12-31T13:00:20.501Z,23.7
2018-12-31T13:01:22.357Z,23.7
2018-12-31T13:02:24.510Z,23.7
2018-12-31T13:03:26.403Z,23.7
2018-12-31T13:04:28.837Z,23.7
2018-12-31T13:05:31.271Z,23.6
2018-12-31T13:06:33.704Z,23.6
2018-12-31T13:07:35.582Z,23.6
2018-12-31T13:08:37.740Z,23.6
2018-12-31T13:09:40.488Z,23.6
2018-12-31T13:10:43.738Z,23.6
2018-12-31T13:11:46.194Z,23.6
2018-12-31T13:12:48.656Z,23.6
2018-12-31T13:13:50.838Z,23.6
2018-12-31T13:14:53.265Z,23.6
2018-12-31T13:15:55.695Z,23.6
2018-12-31T13:16:57.852Z,23.6
2018-12-31T13:17:59.745Z,23.6
2018-12-31T13:19:02.165Z,23.6
2018-12-31T13:20:04.602Z,23.6
2018-12-31T13:21:07.120Z,23.6
2018-12-31T13:22:09.551Z,23.6
2018-12-31T13:23:12.115Z,23.6
2018-12-31T13:24:15.121Z,23.6
2018-12-31T13:25:16.998Z,23.6
2018-12-31T13:26:19.429Z,23.6
2018-12-31T13:27:21.025Z,23.5
2018-12-31T13:28:23.451Z,23.6
2018-12-31T13:29:25.964Z,23.6
2018-12-31T13:30:28.391Z,23.6
2018-12-31T13:31:30.823Z,23.6
2018-12-31T13:32:32.981Z,23.5
2018-12-31T13:33:35.456Z,23.6
2018-12-31T13:34:37.791Z,23.5
2018-12-31T13:35:40.631Z,23.5
2018-12-31T13:36:43.359Z,23.5
2018-12-31T13:37:46.696Z,23.5
2018-12-31T13:38:48.564Z,23.5
2018-12-31T13:39:50.727Z,23.5
2018-12-31T13:40:53.153Z,23.5
2018-12-31T13:41:55.316Z,23.5
2018-12-31T13:42:57.186Z,23.5
2018-12-31T13:43:59.356Z,23.5
2018-12-31T13:45:01.532Z,23.5
2018-12-31T13:46:04.548Z,23.5
2018-12-31T13:47:07.001Z,23.5
2018-12-31T13:48:09.447Z,23.5
2018-12-31T13:49:12.862Z,23.5
2018-12-31T13:50:15.950Z,23.5
2018-12-31T13:51:19.280Z,23.5
2018-12-31T13:52:23.855Z,23.5
2018-12-31T13:53:26.302Z,23.5
2018-12-31T13:54:28.195Z,23.5
2018-12-31T13:55:30.414Z,23.5